Schedule Details

Flight Number: ASX328X
Departure: Corfu International Airport (LGKR) at 15:40Z
Arrival: Gdansk im. Lecha Walesy (EPGD) at 18:20Z
Route: YNN UN731 BITLA DCT LONTA UM749 BGD UM173 PARAK DCT LITKU DCT BABKO Z169 POLON N133 IRLUN

Weather Information
LGKR 180620Z 28002KT 9000 FEW010 SCT030 BKN080 09/08 Q1019 NOSIG
EPGD 180630Z 29002KT 8000 SCT041 M03/M04 Q1026

Schedule Frequency

Route Map